createdAt,value
2023-04-07T00:00:30.407Z,99.2
2023-04-07T00:01:44.683Z,99.4
2023-04-07T00:02:59.088Z,99.5
2023-04-07T00:04:13.501Z,99.7
2023-04-07T00:05:27.815Z,100
2023-04-07T00:06:42.107Z,100
2023-04-07T00:07:56.380Z,100
2023-04-07T00:09:10.782Z,100
2023-04-07T00:10:25.104Z,100
2023-04-07T00:11:39.386Z,100
2023-04-07T00:12:53.682Z,100
2023-04-07T00:14:08.086Z,100
2023-04-07T00:15:22.405Z,100
2023-04-07T00:16:36.678Z,100
2023-04-07T00:17:50.956Z,100
2023-04-07T00:19:05.373Z,100
2023-04-07T00:20:19.699Z,100
2023-04-07T00:22:48.260Z,100
2023-04-07T00:24:02.666Z,100
2023-04-07T00:25:16.984Z,100
2023-04-07T00:26:31.267Z,100
2023-04-07T00:27:45.679Z,100
2023-04-07T00:29:00.075Z,100
2023-04-07T00:30:14.408Z,100
2023-04-07T00:31:28.674Z,100
2023-04-07T00:32:42.966Z,100
2023-04-07T00:33:57.368Z,100
2023-04-07T00:35:11.695Z,100
2023-04-07T00:36:25.971Z,100
2023-04-07T00:37:40.260Z,100
2023-04-07T00:38:54.670Z,100
2023-04-07T00:40:08.993Z,100
2023-04-07T00:41:23.270Z,100
2023-04-07T00:42:37.547Z,100
2023-04-07T00:43:51.948Z,100
2023-04-07T00:45:06.280Z,100
2023-04-07T00:46:20.564Z,100
2023-04-07T00:47:34.961Z,100
2023-04-07T00:48:49.369Z,100
2023-04-07T00:50:03.699Z,100
2023-04-07T00:51:17.967Z,100
2023-04-07T00:52:32.257Z,100
2023-04-07T00:53:46.663Z,100
2023-04-07T00:55:00.979Z,100
2023-04-07T00:57:29.536Z,100
2023-04-07T00:58:43.955Z,100
2023-04-07T00:59:58.278Z,100
2023-04-07T01:01:12.559Z,100
2023-04-07T01:02:26.840Z,100
2023-04-07T01:03:41.244Z,100
2023-04-07T01:04:55.556Z,100
2023-04-07T01:06:09.845Z,100
2023-04-07T01:07:24.246Z,100
2023-04-07T01:08:38.664Z,100
2023-04-07T01:09:52.973Z,100
2023-04-07T01:11:07.258Z,100
2023-04-07T01:12:21.549Z,100
2023-04-07T01:13:35.950Z,100
2023-04-07T01:14:50.265Z,100
2023-04-07T01:16:04.552Z,100
2023-04-07T01:17:18.823Z,100
2023-04-07T01:18:33.247Z,100
2023-04-07T01:19:47.558Z,100
2023-04-07T01:22:16.130Z,100
2023-04-07T01:23:30.533Z,100
2023-04-07T01:24:44.863Z,100
2023-04-07T01:25:59.129Z,100
2023-04-07T01:27:13.546Z,100
2023-04-07T01:28:27.951Z,100
2023-04-07T01:30:56.544Z,100
2023-04-07T01:32:10.818Z,100
2023-04-07T01:33:25.232Z,100
2023-04-07T01:34:39.566Z,100
2023-04-07T01:35:53.838Z,100
2023-04-07T01:37:08.121Z,100
2023-04-07T01:38:22.523Z,100
2023-04-07T01:39:36.842Z,100
2023-04-07T01:40:51.133Z,100
2023-04-07T01:43:19.813Z,100
2023-04-07T01:44:34.000Z,100
2023-04-07T01:45:48.414Z,100
2023-04-07T01:47:02.702Z,100
2023-04-07T01:48:17.099Z,100
2023-04-07T01:49:31.431Z,100
2023-04-07T01:50:45.836Z,100
2023-04-07T01:52:00.152Z,100
2023-04-07T01:53:14.437Z,100
2023-04-07T01:54:28.848Z,100
2023-04-07T01:55:43.173Z,100
2023-04-07T01:56:57.568Z,100
2023-04-07T01:58:11.888Z,100
2023-04-07T02:00:40.586Z,100
2023-04-07T02:01:54.917Z,100
2023-04-07T02:03:09.183Z,100
2023-04-07T02:04:23.463Z,100
2023-04-07T02:05:37.883Z,100
2023-04-07T02:06:52.192Z,100
2023-04-07T02:08:06.470Z,100
2023-04-07T02:09:20.757Z,100
2023-04-07T02:10:35.158Z,100
2023-04-07T02:11:49.499Z,100
2023-04-07T02:13:03.763Z,100
2023-04-07T02:14:18.178Z,100
2023-04-07T02:15:32.572Z,100
2023-04-07T02:16:46.899Z,100
2023-04-07T02:18:01.190Z,100
2023-04-07T02:19:15.463Z,100
2023-04-07T02:20:29.880Z,100
2023-04-07T02:21:44.193Z,100
2023-04-07T02:22:58.471Z,100
2023-04-07T02:24:12.754Z,100
2023-04-07T02:25:27.161Z,100
2023-04-07T02:26:41.484Z,100
2023-04-07T02:27:55.763Z,100
2023-04-07T02:29:10.057Z,100
2023-04-07T02:30:24.446Z,100
2023-04-07T02:31:38.780Z,100
2023-04-07T02:32:53.061Z,100
2023-04-07T02:34:07.459Z,100
2023-04-07T02:35:21.876Z,100
2023-04-07T02:36:36.194Z,100
2023-04-07T02:37:50.475Z,100
2023-04-07T02:39:04.759Z,100
2023-04-07T02:40:19.155Z,100
2023-04-07T02:41:33.478Z,100
2023-04-07T02:42:47.773Z,100
2023-04-07T02:44:02.049Z,100
2023-04-07T02:45:16.444Z,100
2023-04-07T02:46:30.783Z,100
2023-04-07T02:48:59.344Z,100
2023-04-07T02:50:13.740Z,100
2023-04-07T02:51:28.064Z,100
2023-04-07T02:52:42.338Z,100
2023-04-07T02:53:56.624Z,100
2023-04-07T02:55:11.033Z,100
2023-04-07T02:56:25.365Z,100
2023-04-07T02:57:39.648Z,100
2023-04-07T02:58:54.045Z,100
2023-04-07T03:00:08.440Z,100
2023-04-07T03:01:22.772Z,100
2023-04-07T03:02:37.044Z,100
2023-04-07T03:03:51.341Z,100
2023-04-07T03:05:05.749Z,100
2023-04-07T03:06:20.063Z,100
2023-04-07T03:07:34.351Z,100
2023-04-07T03:08:48.632Z,100
2023-04-07T03:10:03.036Z,100
2023-04-07T03:11:17.357Z,100
2023-04-07T03:12:31.639Z,100
2023-04-07T03:13:45.906Z,100
2023-04-07T03:15:00.325Z,100
2023-04-07T03:16:14.642Z,100
2023-04-07T03:17:28.918Z,100
2023-04-07T03:18:43.323Z,100
2023-04-07T03:19:57.743Z,100
2023-04-07T03:21:12.054Z,100
2023-04-07T03:22:26.342Z,100
2023-04-07T03:23:40.626Z,100
2023-04-07T03:24:55.021Z,100
2023-04-07T03:26:09.352Z,100
2023-04-07T03:27:23.623Z,100
2023-04-07T03:28:37.905Z,100
2023-04-07T03:29:52.327Z,100
2023-04-07T03:31:06.651Z,100
2023-04-07T03:32:20.932Z,100
2023-04-07T03:33:35.198Z,100
2023-04-07T03:34:49.603Z,100
2023-04-07T03:36:03.943Z,100
2023-04-07T03:37:18.223Z,100
2023-04-07T03:38:32.500Z,100
2023-04-07T03:39:46.902Z,100
2023-04-07T03:41:01.216Z,100
2023-04-07T03:42:15.515Z,100
2023-04-07T03:43:29.794Z,100
2023-04-07T03:45:58.518Z,100
2023-04-07T03:48:27.086Z,100
2023-04-07T03:49:41.476Z,100
2023-04-07T03:50:55.810Z,100
2023-04-07T03:53:24.371Z,100
2023-04-07T03:54:38.769Z,100
2023-04-07T03:55:53.104Z,100
2023-04-07T03:57:07.381Z,100
2023-04-07T03:58:21.662Z,100
2023-04-07T03:59:36.072Z,100
2023-04-07T04:00:50.390Z,100
2023-04-07T04:02:04.678Z,100
2023-04-07T04:03:19.091Z,100
2023-04-07T04:04:33.499Z,100
2023-04-07T04:05:47.822Z,100
2023-04-07T04:07:02.100Z,100
2023-04-07T04:09:30.798Z,100
2023-04-07T04:10:45.116Z,100
2023-04-07T04:11:59.410Z,100
2023-04-07T04:13:13.675Z,100
2023-04-07T04:14:28.094Z,100
2023-04-07T04:15:42.405Z,100
2023-04-07T04:16:56.701Z,100
2023-04-07T04:18:11.092Z,100
2023-04-07T04:19:25.453Z,100
2023-04-07T04:20:39.782Z,100
2023-04-07T04:21:54.055Z,100
2023-04-07T04:23:08.272Z,100
2023-04-07T04:24:22.590Z,100
2023-04-07T04:25:36.832Z,100
2023-04-07T04:26:51.048Z,100
2023-04-07T04:29:19.496Z,100
2023-04-07T04:30:33.802Z,100
2023-04-07T04:31:48.034Z,100
2023-04-07T04:33:02.270Z,100
2023-04-07T04:34:16.503Z,100
2023-04-07T04:35:30.728Z,100
2023-04-07T04:36:45.027Z,100
2023-04-07T04:37:59.261Z,100
2023-04-07T04:39:13.492Z,100
2023-04-07T04:40:27.707Z,100
2023-04-07T04:41:41.947Z,100
2023-04-07T04:42:56.252Z,100
2023-04-07T04:44:10.480Z,100
2023-04-07T04:45:24.858Z,100
2023-04-07T04:46:39.085Z,100
2023-04-07T04:47:53.315Z,100
2023-04-07T04:49:07.603Z,100
2023-04-07T04:50:21.855Z,100
2023-04-07T04:51:36.081Z,100
2023-04-07T04:52:50.431Z,100
2023-04-07T04:54:04.659Z,100
2023-04-07T04:55:18.949Z,100
2023-04-07T04:57:47.409Z,100
2023-04-07T04:59:01.643Z,100
2023-04-07T05:00:15.868Z,100
2023-04-07T05:01:30.176Z,100
2023-04-07T05:02:44.409Z,100
2023-04-07T05:03:58.632Z,100
2023-04-07T05:05:12.870Z,100
2023-04-07T05:06:27.081Z,100
2023-04-07T05:07:41.382Z,100
2023-04-07T05:10:09.857Z,100
2023-04-07T05:11:24.076Z,100
2023-04-07T05:12:38.438Z,100
2023-04-07T05:13:52.739Z,100
2023-04-07T05:15:06.974Z,100
2023-04-07T05:16:21.208Z,100
2023-04-07T05:17:35.424Z,100
2023-04-07T05:18:49.663Z,100
2023-04-07T05:20:03.962Z,100
2023-04-07T05:21:18.202Z,100
2023-04-07T05:22:32.432Z,100
2023-04-07T05:23:46.653Z,100
2023-04-07T05:25:00.877Z,100
2023-04-07T05:26:15.171Z,100
2023-04-07T05:27:29.425Z,100
2023-04-07T05:28:43.642Z,100
2023-04-07T05:29:58.003Z,100
2023-04-07T05:31:12.223Z,100
2023-04-07T05:32:26.516Z,100
2023-04-07T05:33:40.752Z,100
2023-04-07T05:34:54.981Z,100
2023-04-07T05:36:09.209Z,100
2023-04-07T05:38:37.737Z,100
2023-04-07T05:39:51.980Z,100
2023-04-07T05:41:06.205Z,100
2023-04-07T05:42:20.434Z,100
2023-04-07T05:43:34.651Z,100
2023-04-07T05:44:48.951Z,100
2023-04-07T05:46:03.204Z,100
2023-04-07T05:47:17.433Z,100
2023-04-07T05:48:31.656Z,100
2023-04-07T05:49:46.001Z,100
2023-04-07T05:51:00.300Z,100
2023-04-07T05:52:14.556Z,100
2023-04-07T05:53:28.768Z,100
2023-04-07T05:54:43.005Z,100
2023-04-07T05:55:57.222Z,100
2023-04-07T05:57:11.532Z,100
2023-04-07T05:58:25.762Z,100
2023-04-07T05:59:39.999Z,100
2023-04-07T06:00:54.211Z,100
2023-04-07T06:03:22.750Z,100
2023-04-07T06:04:36.993Z,100
2023-04-07T06:05:51.206Z,100
2023-04-07T06:07:05.442Z,100
2023-04-07T06:08:19.667Z,100
2023-04-07T06:09:33.969Z,100
2023-04-07T06:10:48.200Z,100
2023-04-07T06:12:02.572Z,100
2023-04-07T06:13:16.790Z,100
2023-04-07T06:14:31.013Z,100
2023-04-07T06:15:45.312Z,100
2023-04-07T06:16:59.567Z,100
2023-04-07T06:18:13.781Z,100
2023-04-07T06:19:28.002Z,100
2023-04-07T06:20:42.241Z,100
2023-04-07T06:21:56.532Z,100
2023-04-07T06:23:10.787Z,100
2023-04-07T06:24:25.011Z,100
2023-04-07T06:25:39.237Z,100
2023-04-07T06:26:53.462Z,100
2023-04-07T06:28:07.000Z,100
2023-04-07T06:29:22.006Z,100
2023-04-07T06:30:36.228Z,100
2023-04-07T06:31:50.577Z,100
2023-04-07T06:33:04.810Z,100
2023-04-07T06:34:19.098Z,100
2023-04-07T06:35:33.341Z,100
2023-04-07T06:36:47.562Z,100
2023-04-07T06:38:01.805Z,100
2023-04-07T06:39:16.014Z,100
2023-04-07T06:40:30.324Z,100
2023-04-07T06:41:44.556Z,100
2023-04-07T06:42:58.800Z,100
2023-04-07T06:44:13.013Z,100
2023-04-07T06:45:27.244Z,100
2023-04-07T06:46:41.544Z,100
2023-04-07T06:47:55.789Z,100
2023-04-07T06:49:10.007Z,100
2023-04-07T06:50:24.237Z,100
2023-04-07T06:51:38.582Z,100
2023-04-07T06:52:52.896Z,100
2023-04-07T06:54:07.134Z,100
2023-04-07T06:55:21.355Z,100
2023-04-07T06:56:35.575Z,100
2023-04-07T06:57:49.811Z,100
2023-04-07T06:59:04.107Z,100
2023-04-07T07:00:18.359Z,100
2023-04-07T07:01:32.583Z,100
2023-04-07T07:02:46.805Z,100
2023-04-07T07:04:01.039Z,100
2023-04-07T07:05:15.335Z,100
2023-04-07T07:06:29.578Z,100
2023-04-07T07:07:43.800Z,100
2023-04-07T07:08:58.158Z,100
2023-04-07T07:11:26.677Z,100
2023-04-07T07:12:40.922Z,100
2023-04-07T07:13:55.136Z,100
2023-04-07T07:15:09.366Z,100
2023-04-07T07:16:23.599Z,100
2023-04-07T07:17:37.892Z,100
2023-04-07T07:18:52.144Z,100
2023-04-07T07:20:06.360Z,100
2023-04-07T07:21:20.600Z,100
2023-04-07T07:22:34.816Z,100
2023-04-07T07:23:49.111Z,100
2023-04-07T07:25:03.367Z,100
2023-04-07T07:27:31.820Z,100
2023-04-07T07:28:46.034Z,100
2023-04-07T07:30:00.341Z,100
2023-04-07T07:31:14.571Z,100
2023-04-07T07:32:28.804Z,100
2023-04-07T07:33:43.147Z,100
2023-04-07T07:34:57.373Z,100
2023-04-07T07:36:11.687Z,100
2023-04-07T07:37:25.920Z,100
2023-04-07T07:38:40.139Z,100
2023-04-07T07:41:08.595Z,100
2023-04-07T07:42:22.891Z,100
2023-04-07T07:43:37.144Z,100
2023-04-07T07:44:51.367Z,100
2023-04-07T07:46:05.597Z,100
2023-04-07T07:48:34.118Z,100
2023-04-07T07:49:48.359Z,100
2023-04-07T07:51:02.733Z,100
2023-04-07T07:52:16.951Z,100
2023-04-07T07:53:31.190Z,100
2023-04-07T07:54:45.477Z,100
2023-04-07T07:55:59.726Z,100
2023-04-07T07:57:13.962Z,100
2023-04-07T07:58:28.324Z,100
2023-04-07T07:59:42.543Z,100
2023-04-07T08:00:56.840Z,100
2023-04-07T08:03:25.314Z,100
2023-04-07T08:04:39.553Z,100
2023-04-07T08:05:53.884Z,100
2023-04-07T08:07:08.190Z,100
2023-04-07T08:08:22.442Z,100
2023-04-07T08:09:36.656Z,100
2023-04-07T08:10:50.886Z,100
2023-04-07T08:12:05.118Z,100
2023-04-07T08:13:19.422Z,100
2023-04-07T08:14:33.651Z,100
2023-04-07T08:15:47.885Z,100
2023-04-07T08:17:02.108Z,100
2023-04-07T08:18:16.323Z,100
2023-04-07T08:19:30.642Z,100
2023-04-07T08:20:44.877Z,100
2023-04-07T08:21:59.099Z,100
2023-04-07T08:23:13.329Z,100
2023-04-07T08:24:27.545Z,100
2023-04-07T08:25:41.862Z,100
2023-04-07T08:26:56.089Z,100
2023-04-07T08:28:10.320Z,100
2023-04-07T08:29:24.545Z,100
2023-04-07T08:30:38.784Z,100
2023-04-07T08:31:53.082Z,100
2023-04-07T08:33:07.315Z,100
2023-04-07T08:34:21.551Z,100
2023-04-07T08:35:35.919Z,100
2023-04-07T08:36:50.131Z,100
2023-04-07T08:38:04.431Z,100
2023-04-07T08:39:18.670Z,99.8
2023-04-07T08:40:32.913Z,99.8
2023-04-07T08:41:47.260Z,99.8
2023-04-07T08:43:01.483Z,99.4
2023-04-07T08:44:15.779Z,98.8
2023-04-07T08:45:30.018Z,98.2
2023-04-07T08:46:44.258Z,98.2
2023-04-07T08:47:58.474Z,98.4
2023-04-07T08:49:12.697Z,98.2
2023-04-07T08:51:41.251Z,98.1
2023-04-07T08:52:55.478Z,98.1
2023-04-07T08:54:09.706Z,97.3
2023-04-07T08:55:23.917Z,97.3
2023-04-07T08:56:38.220Z,97.7
2023-04-07T08:57:52.456Z,97.7
2023-04-07T08:59:06.694Z,97.4
2023-04-07T09:00:20.911Z,96.7
2023-04-07T09:01:35.148Z,96
2023-04-07T09:02:49.438Z,95.8
2023-04-07T09:04:03.694Z,95.2
2023-04-07T09:05:18.032Z,95.1
2023-04-07T09:06:32.260Z,95.4
2023-04-07T09:07:46.490Z,95.1
2023-04-07T09:09:00.792Z,95.2
2023-04-07T09:10:15.032Z,95.8
2023-04-07T09:11:29.247Z,96.3
2023-04-07T09:12:43.481Z,94.4
2023-04-07T09:13:57.710Z,95.4
2023-04-07T09:15:12.003Z,95.5
2023-04-07T09:16:26.250Z,96
2023-04-07T09:17:40.475Z,95.4
2023-04-07T09:18:54.695Z,95.1
2023-04-07T09:20:08.927Z,94.5
2023-04-07T09:21:23.221Z,93.4
2023-04-07T09:22:37.473Z,94.4
2023-04-07T09:23:51.702Z,94.1
2023-04-07T09:25:06.034Z,93.7
2023-04-07T09:26:20.264Z,93.2
2023-04-07T09:27:34.561Z,93.4
2023-04-07T09:28:48.813Z,94
2023-04-07T09:30:03.043Z,93
2023-04-07T09:31:17.257Z,91
2023-04-07T09:32:31.481Z,90.4
2023-04-07T09:33:45.781Z,90.5
2023-04-07T09:35:00.038Z,91.6
2023-04-07T09:36:14.253Z,92.3
2023-04-07T09:37:28.472Z,93
2023-04-07T09:38:42.699Z,92.5
2023-04-07T09:39:57.000Z,90.4
2023-04-07T09:41:11.242Z,89.6
2023-04-07T09:42:25.478Z,90.6
2023-04-07T09:43:39.698Z,89.8
2023-04-07T09:44:54.044Z,91.7
2023-04-07T09:46:08.357Z,89.7
2023-04-07T09:47:22.590Z,89.9
2023-04-07T09:48:36.827Z,89.7
2023-04-07T09:49:51.046Z,87.7
2023-04-07T09:51:05.278Z,87.6
2023-04-07T09:52:19.562Z,87.8
2023-04-07T09:53:33.819Z,88.3
2023-04-07T09:54:48.033Z,88.9
2023-04-07T09:56:02.268Z,88.8
2023-04-07T09:57:16.482Z,89.8
2023-04-07T09:58:30.792Z,90.3
2023-04-07T09:59:45.040Z,89.8
2023-04-07T10:00:59.250Z,90.2
2023-04-07T10:02:13.489Z,89.1
2023-04-07T10:03:27.720Z,89
2023-04-07T10:04:42.014Z,88.8
2023-04-07T10:05:56.244Z,88.1
2023-04-07T10:07:10.472Z,88.3
2023-04-07T10:08:24.699Z,88.5
2023-04-07T10:09:39.050Z,87.2
2023-04-07T10:12:07.586Z,88.7
2023-04-07T10:13:21.832Z,89
2023-04-07T10:14:36.054Z,88.2
2023-04-07T10:17:04.573Z,87.5
2023-04-07T10:18:18.823Z,87.7
2023-04-07T10:19:33.051Z,87.3
2023-04-07T10:20:47.386Z,86.3
2023-04-07T10:23:15.927Z,85.1
2023-04-07T10:24:30.172Z,85.9
2023-04-07T10:25:44.392Z,85.7
2023-04-07T10:26:58.624Z,86.2
2023-04-07T10:28:12.851Z,87.9
2023-04-07T10:29:27.152Z,85.5
2023-04-07T10:30:41.378Z,86.3
2023-04-07T10:31:55.612Z,87.8
2023-04-07T10:33:09.832Z,87.2
2023-04-07T10:34:24.059Z,86.8
2023-04-07T10:35:38.366Z,84.7
2023-04-07T10:36:52.602Z,85.9
2023-04-07T10:38:06.833Z,86.4
2023-04-07T10:39:21.058Z,85.3
2023-04-07T10:40:35.272Z,85.3
2023-04-07T10:41:49.573Z,86.3
2023-04-07T10:43:03.822Z,85.8
2023-04-07T10:44:18.054Z,83.9
2023-04-07T10:45:32.285Z,84.6
2023-04-07T10:46:46.497Z,83.6
2023-04-07T10:48:00.798Z,84.8
2023-04-07T10:49:15.038Z,85
2023-04-07T10:50:29.262Z,85.3
2023-04-07T10:51:43.496Z,86
2023-04-07T10:52:57.724Z,86.4
2023-04-07T10:54:12.027Z,86.5
2023-04-07T10:55:26.262Z,85.1
2023-04-07T10:56:40.000Z,86.3
2023-04-07T10:57:54.718Z,85.8
2023-04-07T10:59:08.944Z,85.8
2023-04-07T11:00:23.235Z,86.3
2023-04-07T11:01:37.492Z,86.8
2023-04-07T11:02:51.712Z,86.9
2023-04-07T11:04:05.937Z,87.1
2023-04-07T11:05:20.169Z,86.5
2023-04-07T11:06:34.521Z,87.2
2023-04-07T11:09:03.083Z,86.6
2023-04-07T11:10:17.362Z,85.8
2023-04-07T11:11:30.660Z,84.5
2023-04-07T11:13:59.135Z,85.6
2023-04-07T11:15:13.369Z,86.9
2023-04-07T11:16:27.575Z,85.1
2023-04-07T11:17:41.876Z,86.2
2023-04-07T11:18:56.123Z,86.3
2023-04-07T11:20:10.343Z,85.6
2023-04-07T11:21:24.581Z,87.1
2023-04-07T11:22:38.800Z,86
2023-04-07T11:23:53.102Z,86.7
2023-04-07T11:25:07.343Z,87.5
2023-04-07T11:26:21.567Z,86
2023-04-07T11:27:35.805Z,85.9
2023-04-07T11:28:50.024Z,87.6
2023-04-07T11:30:04.317Z,85.8
2023-04-07T11:31:18.563Z,87.4
2023-04-07T11:32:32.798Z,86.8
2023-04-07T11:33:47.009Z,85.9
2023-04-07T11:35:01.242Z,85.1
2023-04-07T11:36:15.545Z,84.7
2023-04-07T11:37:29.783Z,84.4
2023-04-07T11:38:44.007Z,81.6
2023-04-07T11:39:58.239Z,80.8
2023-04-07T11:41:12.456Z,80.7
2023-04-07T11:42:26.815Z,83
2023-04-07T11:43:41.117Z,82.3
2023-04-07T11:44:54.441Z,81.1
2023-04-07T11:46:07.728Z,81.4
2023-04-07T11:47:21.973Z,80.9
2023-04-07T11:48:36.209Z,81
2023-04-07T11:49:50.426Z,81.1
2023-04-07T11:51:04.644Z,81.2
2023-04-07T11:52:18.963Z,79.4
2023-04-07T11:53:33.194Z,80.5
2023-04-07T11:54:47.424Z,78.9
2023-04-07T11:56:01.639Z,80.1
2023-04-07T11:57:15.873Z,78.5
2023-04-07T11:58:30.170Z,77.9
2023-04-07T11:59:44.424Z,78.8
2023-04-07T12:00:58.644Z,80
2023-04-07T12:02:12.862Z,78.7
2023-04-07T12:04:41.396Z,79.3
2023-04-07T12:05:55.641Z,78.9
2023-04-07T12:07:09.862Z,77.1
2023-04-07T12:08:24.081Z,76.8
2023-04-07T12:09:38.311Z,78.2
2023-04-07T12:10:52.604Z,77.8
2023-04-07T12:12:06.860Z,78.7
2023-04-07T12:13:21.078Z,78.2
2023-04-07T12:14:35.317Z,78.1
2023-04-07T12:15:49.536Z,77.9
2023-04-07T12:17:03.894Z,77.7
2023-04-07T12:18:18.186Z,77.9
2023-04-07T12:19:31.504Z,78.6
2023-04-07T12:20:44.807Z,78.8
2023-04-07T12:21:59.051Z,79.1
2023-04-07T12:23:13.265Z,79.2
2023-04-07T12:24:27.497Z,80.2
2023-04-07T12:25:41.728Z,80.2
2023-04-07T12:26:56.034Z,78.5
2023-04-07T12:28:10.260Z,76.8
2023-04-07T12:29:24.484Z,79.4
2023-04-07T12:30:38.715Z,77.3
2023-04-07T12:31:52.951Z,77.3
2023-04-07T12:33:07.241Z,77.8
2023-04-07T12:34:21.484Z,78.6
2023-04-07T12:35:35.709Z,78.2
2023-04-07T12:36:49.949Z,78.9
2023-04-07T12:38:04.161Z,78.1
2023-04-07T12:39:18.466Z,77.3
2023-04-07T12:40:32.707Z,79
2023-04-07T12:41:46.941Z,78.5
2023-04-07T12:44:15.388Z,77.3
2023-04-07T12:45:29.680Z,77.4
2023-04-07T12:46:43.934Z,76.8
2023-04-07T12:47:58.149Z,75.1
2023-04-07T12:49:12.377Z,74.7
2023-04-07T12:50:26.612Z,75.3
2023-04-07T12:51:40.970Z,76.1
2023-04-07T12:52:55.238Z,75.1
2023-04-07T12:54:08.571Z,75.1
2023-04-07T12:55:21.869Z,74.2
2023-04-07T12:56:36.121Z,73.1
2023-04-07T12:57:50.341Z,73.2
2023-04-07T12:59:04.561Z,74.7
2023-04-07T13:00:18.797Z,75.1
2023-04-07T13:01:33.092Z,74.2
2023-04-07T13:02:47.333Z,74
2023-04-07T13:04:01.557Z,74.9
2023-04-07T13:05:15.783Z,75.1
2023-04-07T13:06:30.006Z,74.4
2023-04-07T13:07:44.322Z,75.5
2023-04-07T13:08:58.563Z,74.8
2023-04-07T13:10:12.773Z,74
2023-04-07T13:11:27.011Z,74.1
2023-04-07T13:12:41.228Z,74
2023-04-07T13:13:55.527Z,74.6
2023-04-07T13:15:09.765Z,74.6
2023-04-07T13:16:24.008Z,75
2023-04-07T13:17:38.235Z,75.9
2023-04-07T13:18:52.451Z,74.5
2023-04-07T13:20:06.756Z,75.2
2023-04-07T13:21:20.993Z,74.9
2023-04-07T13:22:35.224Z,74.3
2023-04-07T13:25:03.670Z,74.1
2023-04-07T13:26:18.034Z,74.5
2023-04-07T13:27:32.317Z,75.7
2023-04-07T13:28:45.613Z,73.7
2023-04-07T13:29:59.837Z,74.8
2023-04-07T13:31:14.139Z,74.3
2023-04-07T13:32:28.375Z,74.5
2023-04-07T13:33:42.607Z,73.6
2023-04-07T13:34:56.836Z,74
2023-04-07T13:36:11.061Z,74.3
2023-04-07T13:38:39.598Z,73.7
2023-04-07T13:39:53.827Z,74
2023-04-07T13:41:08.053Z,72.6
2023-04-07T13:42:22.392Z,72.8
2023-04-07T13:43:36.699Z,73
2023-04-07T13:44:50.931Z,73.8
2023-04-07T13:46:05.163Z,71.9
2023-04-07T13:47:19.385Z,73.1
2023-04-07T13:48:33.615Z,73.2
2023-04-07T13:49:47.925Z,73.4
2023-04-07T13:51:02.152Z,73.6
2023-04-07T13:52:16.384Z,73.5
2023-04-07T14:01:43.294Z,72.3
2023-04-07T14:02:57.550Z,72.1
2023-04-07T14:04:11.792Z,72.2
2023-04-07T14:05:26.004Z,72.4
2023-04-07T14:06:40.231Z,71.7
2023-04-07T14:07:54.471Z,72.1
2023-04-07T14:09:08.765Z,71.7
2023-04-07T14:10:22.998Z,70.6
2023-04-07T14:11:37.224Z,71.4
2023-04-07T14:12:51.467Z,67.8
2023-04-07T14:14:05.691Z,69.8
2023-04-07T14:15:19.988Z,69
2023-04-07T14:16:34.227Z,69.3
2023-04-07T14:17:48.446Z,69.6
2023-04-07T14:19:02.680Z,69.5
2023-04-07T14:20:16.914Z,68.9
2023-04-07T14:21:31.202Z,70.6
2023-04-07T14:22:45.453Z,68.8
2023-04-07T14:23:59.674Z,68.7
2023-04-07T14:25:13.909Z,69.4
2023-04-07T14:26:28.131Z,69.8
2023-04-07T14:27:42.433Z,69.3
2023-04-07T14:28:56.674Z,69.1
2023-04-07T14:30:10.898Z,68.8
2023-04-07T14:31:25.113Z,69.7
2023-04-07T14:32:39.358Z,70.1
2023-04-07T14:33:53.647Z,71.3
2023-04-07T14:35:07.887Z,70.3
2023-04-07T14:36:22.123Z,70.3
2023-04-07T14:37:36.338Z,70.3
2023-04-07T14:38:50.571Z,71.2
2023-04-07T14:40:04.873Z,70
2023-04-07T14:41:19.118Z,70.4
2023-04-07T14:42:33.331Z,70.8
2023-04-07T14:43:47.564Z,71
2023-04-07T14:45:01.783Z,71.8
2023-04-07T14:46:16.094Z,71.2
2023-04-07T14:48:44.555Z,70.4
2023-04-07T14:49:58.793Z,71.2
2023-04-07T14:51:13.011Z,70.3
2023-04-07T14:52:27.303Z,70.1
2023-04-07T14:53:41.562Z,68.5
2023-04-07T14:54:55.783Z,69.4
2023-04-07T14:56:10.000Z,70
2023-04-07T14:57:24.230Z,70.1
2023-04-07T14:58:38.534Z,68.8
2023-04-07T14:59:52.769Z,68.8
2023-04-07T15:01:07.002Z,69.8
2023-04-07T15:02:21.222Z,68.9
2023-04-07T15:03:35.454Z,68.2
2023-04-07T15:04:49.760Z,69.5
2023-04-07T15:06:03.990Z,69.3
2023-04-07T15:07:18.221Z,69.7
2023-04-07T15:08:32.454Z,69.3
2023-04-07T15:09:46.677Z,70
2023-04-07T15:11:00.983Z,69
2023-04-07T15:12:15.228Z,69.5
2023-04-07T15:13:29.440Z,68.9
2023-04-07T15:14:43.673Z,69
2023-04-07T15:15:57.905Z,70.1
2023-04-07T15:17:12.207Z,70.4
2023-04-07T15:18:26.441Z,71.2
2023-04-07T15:19:40.662Z,71.7
2023-04-07T15:20:54.899Z,70.6
2023-04-07T15:22:09.118Z,71
2023-04-07T15:23:23.415Z,71
2023-04-07T15:24:37.651Z,70.5
2023-04-07T15:25:51.898Z,70.7
2023-04-07T15:27:06.110Z,70.4
2023-04-07T15:28:20.345Z,70.7
2023-04-07T15:29:34.637Z,71.7
2023-04-07T15:30:48.882Z,70.6
2023-04-07T15:32:03.100Z,70.5
2023-04-07T15:33:17.332Z,70.7
2023-04-07T15:34:31.553Z,70.5
2023-04-07T15:35:45.863Z,70.2
2023-04-07T15:37:00.110Z,68.5
2023-04-07T15:39:28.547Z,68
2023-04-07T15:40:42.777Z,67.5
2023-04-07T15:41:57.078Z,67.4
2023-04-07T15:43:11.320Z,66.2
2023-04-07T15:44:25.544Z,65.9
2023-04-07T15:46:54.001Z,66.2
2023-04-07T15:48:08.307Z,65.7
2023-04-07T15:49:22.544Z,66.7
2023-04-07T15:50:36.780Z,66.9
2023-04-07T15:51:50.996Z,66.4
2023-04-07T15:53:05.231Z,67.4
2023-04-07T15:54:19.534Z,68.6
2023-04-07T15:55:33.767Z,68.5
2023-04-07T15:56:47.988Z,68.8
2023-04-07T15:58:02.219Z,69
2023-04-07T15:59:16.439Z,69.5
2023-04-07T16:00:30.755Z,69.7
2023-04-07T16:01:44.994Z,69.6
2023-04-07T16:02:59.213Z,68.9
2023-04-07T16:04:13.442Z,70
2023-04-07T16:05:27.661Z,68.9
2023-04-07T16:06:41.957Z,69.5
2023-04-07T16:07:56.204Z,69.5
2023-04-07T16:09:10.428Z,70.4
2023-04-07T16:10:24.659Z,69.9
2023-04-07T16:11:38.895Z,69.8
2023-04-07T16:12:53.191Z,68.7
2023-04-07T16:14:07.438Z,68.4
2023-04-07T16:15:21.646Z,68
2023-04-07T16:16:35.877Z,68.5
2023-04-07T16:17:50.100Z,68.8
2023-04-07T16:19:04.400Z,69.8
2023-04-07T16:20:18.656Z,69.3
2023-04-07T16:21:33.012Z,69
2023-04-07T16:22:47.242Z,69.1
2023-04-07T16:24:01.466Z,69.3
2023-04-07T16:25:15.777Z,70
2023-04-07T16:26:30.004Z,70.5
2023-04-07T16:27:44.236Z,69.1
2023-04-07T16:28:58.461Z,69.2
2023-04-07T16:30:12.696Z,68.7
2023-04-07T16:31:26.983Z,68.6
2023-04-07T16:32:41.236Z,69.8
2023-04-07T16:33:55.466Z,69.3
2023-04-07T16:35:09.684Z,69.3
2023-04-07T16:36:23.903Z,69.8
2023-04-07T16:37:38.207Z,70.1
2023-04-07T16:38:52.449Z,69.9
2023-04-07T16:40:06.670Z,69.3
2023-04-07T16:41:21.037Z,68
2023-04-07T16:42:35.245Z,67.7
2023-04-07T16:43:49.550Z,68.5
2023-04-07T16:45:03.803Z,68.3
2023-04-07T16:46:18.022Z,68.2
2023-04-07T16:47:32.259Z,69
2023-04-07T16:48:46.473Z,68.8
2023-04-07T16:50:00.774Z,69
2023-04-07T16:51:15.019Z,69
2023-04-07T16:52:29.252Z,69.3
2023-04-07T16:53:43.460Z,69.5
2023-04-07T16:54:57.695Z,69.9
2023-04-07T16:56:12.004Z,71.2
2023-04-07T16:57:26.229Z,71.1
2023-04-07T16:58:40.463Z,70.8
2023-04-07T16:59:54.685Z,70.6
2023-04-07T17:01:09.054Z,73.5
2023-04-07T17:02:23.367Z,73.2
2023-04-07T17:03:37.594Z,73.6
2023-04-07T17:04:51.821Z,73.1
2023-04-07T17:06:06.056Z,72.9
2023-04-07T17:07:20.276Z,74
2023-04-07T17:08:34.575Z,73.7
2023-04-07T17:09:48.819Z,74.1
2023-04-07T17:11:03.171Z,74.5
2023-04-07T17:12:17.386Z,75.2
2023-04-07T17:13:31.624Z,74.8
2023-04-07T17:14:45.916Z,75
2023-04-07T17:16:00.161Z,75.6
2023-04-07T17:17:14.399Z,74.1
2023-04-07T17:18:28.617Z,74.8
2023-04-07T17:19:42.849Z,74.9
2023-04-07T17:20:57.146Z,75.6
2023-04-07T17:22:11.391Z,75.2
2023-04-07T17:23:25.616Z,75.2
2023-04-07T17:24:39.831Z,76
2023-04-07T17:25:54.059Z,76.3
2023-04-07T17:27:08.356Z,77.1
2023-04-07T17:28:22.601Z,77.6
2023-04-07T17:29:36.823Z,76.8
2023-04-07T17:30:51.058Z,77.3
2023-04-07T17:32:05.430Z,77.6
2023-04-07T17:33:19.735Z,77.6
2023-04-07T17:34:33.966Z,78.2
2023-04-07T17:35:48.189Z,78.2
2023-04-07T17:37:02.427Z,77.8
2023-04-07T17:38:16.652Z,78.5